sensor_id;sensor_type;location;lat;lon;timestamp;P1;durP1;ratioP1;P2;durP2;ratioP2
48871;SDS011;36154;51.674;7.824;2023-02-26T00:01:37;0.40;;;0.40;;
48871;SDS011;36154;51.674;7.824;2023-02-26T00:04:03;0.20;;;0.20;;
48871;SDS011;36154;51.674;7.824;2023-02-26T00:06:34;0.38;;;0.30;;
48871;SDS011;36154;51.674;7.824;2023-02-26T00:09:02;0.22;;;0.22;;
48871;SDS011;36154;51.674;7.824;2023-02-26T00:11:28;0.30;;;0.30;;
48871;SDS011;36154;51.674;7.824;2023-02-26T00:13:54;0.30;;;0.30;;
48871;SDS011;36154;51.674;7.824;2023-02-26T00:18:54;0.30;;;0.30;;
48871;SDS011;36154;51.674;7.824;2023-02-26T00:21:20;0.20;;;0.20;;
48871;SDS011;36154;51.674;7.824;2023-02-26T00:23:48;0.30;;;0.30;;
48871;SDS011;36154;51.674;7.824;2023-02-26T00:26:13;0.28;;;0.20;;
48871;SDS011;36154;51.674;7.824;2023-02-26T00:28:39;0.22;;;0.22;;
48871;SDS011;36154;51.674;7.824;2023-02-26T00:31:05;0.30;;;0.30;;
48871;SDS011;36154;51.674;7.824;2023-02-26T00:33:30;0.22;;;0.22;;
48871;SDS011;36154;51.674;7.824;2023-02-26T00:36:00;0.30;;;0.30;;
48871;SDS011;36154;51.674;7.824;2023-02-26T00:38:37;0.30;;;0.30;;
48871;SDS011;36154;51.674;7.824;2023-02-26T00:41:07;0.20;;;0.20;;
48871;SDS011;36154;51.674;7.824;2023-02-26T00:43:32;1.40;;;0.20;;
48871;SDS011;36154;51.674;7.824;2023-02-26T00:54:34;0.25;;;0.25;;
48871;SDS011;36154;51.674;7.824;2023-02-26T00:56:59;0.40;;;0.40;;
48871;SDS011;36154;51.674;7.824;2023-02-26T00:59:25;0.20;;;0.20;;
48871;SDS011;36154;51.674;7.824;2023-02-26T01:01:50;1.63;;;0.28;;
48871;SDS011;36154;51.674;7.824;2023-02-26T01:04:17;0.30;;;0.30;;
48871;SDS011;36154;51.674;7.824;2023-02-26T01:06:45;0.40;;;0.28;;
48871;SDS011;36154;51.674;7.824;2023-02-26T01:11:54;1.75;;;0.30;;
48871;SDS011;36154;51.674;7.824;2023-02-26T01:14:25;0.30;;;0.30;;
48871;SDS011;36154;51.674;7.824;2023-02-26T01:17:12;0.20;;;0.20;;
48871;SDS011;36154;51.674;7.824;2023-02-26T01:19:57;0.75;;;0.38;;
48871;SDS011;36154;51.674;7.824;2023-02-26T01:22:39;0.35;;;0.30;;
48871;SDS011;36154;51.674;7.824;2023-02-26T01:25:15;0.32;;;0.20;;
48871;SDS011;36154;51.674;7.824;2023-02-26T01:27:45;0.20;;;0.20;;
48871;SDS011;36154;51.674;7.824;2023-02-26T01:30:11;0.30;;;0.28;;
48871;SDS011;36154;51.674;7.824;2023-02-26T01:38:15;0.30;;;0.30;;
48871;SDS011;36154;51.674;7.824;2023-02-26T01:41:06;0.20;;;0.20;;
48871;SDS011;36154;51.674;7.824;2023-02-26T01:46:45;0.20;;;0.15;;
48871;SDS011;36154;51.674;7.824;2023-02-26T01:49:16;0.30;;;0.22;;
48871;SDS011;36154;51.674;7.824;2023-02-26T01:51:48;0.20;;;0.20;;
48871;SDS011;36154;51.674;7.824;2023-02-26T01:54:19;0.22;;;0.20;;
48871;SDS011;36154;51.674;7.824;2023-02-26T01:56:48;0.28;;;0.25;;
48871;SDS011;36154;51.674;7.824;2023-02-26T01:59:17;0.20;;;0.20;;
48871;SDS011;36154;51.674;7.824;2023-02-26T02:01:48;0.28;;;0.25;;
48871;SDS011;36154;51.674;7.824;2023-02-26T02:04:16;0.50;;;0.30;;
48871;SDS011;36154;51.674;7.824;2023-02-26T02:06:42;0.22;;;0.20;;
48871;SDS011;36154;51.674;7.824;2023-02-26T02:09:08;0.28;;;0.28;;
48871;SDS011;36154;51.674;7.824;2023-02-26T02:11:33;0.13;;;0.13;;
48871;SDS011;36154;51.674;7.824;2023-02-26T02:16:55;0.13;;;0.13;;
48871;SDS011;36154;51.674;7.824;2023-02-26T02:19:32;0.30;;;0.30;;
48871;SDS011;36154;51.674;7.824;2023-02-26T02:33:37;0.30;;;0.30;;
48871;SDS011;36154;51.674;7.824;2023-02-26T02:36:12;0.30;;;0.20;;
48871;SDS011;36154;51.674;7.824;2023-02-26T02:41:23;0.22;;;0.20;;
48871;SDS011;36154;51.674;7.824;2023-02-26T02:43:54;0.43;;;0.30;;
48871;SDS011;36154;51.674;7.824;2023-02-26T02:46:24;0.30;;;0.30;;
48871;SDS011;36154;51.674;7.824;2023-02-26T02:48:58;0.30;;;0.30;;
48871;SDS011;36154;51.674;7.824;2023-02-26T03:02:09;0.13;;;0.13;;
48871;SDS011;36154;51.674;7.824;2023-02-26T03:04:40;0.20;;;0.20;;
48871;SDS011;36154;51.674;7.824;2023-02-26T03:07:06;0.28;;;0.28;;
48871;SDS011;36154;51.674;7.824;2023-02-26T03:09:32;0.20;;;0.20;;
48871;SDS011;36154;51.674;7.824;2023-02-26T03:11:57;0.20;;;0.20;;
48871;SDS011;36154;51.674;7.824;2023-02-26T03:14:23;0.20;;;0.20;;
48871;SDS011;36154;51.674;7.824;2023-02-26T03:25:08;0.15;;;0.15;;
48871;SDS011;36154;51.674;7.824;2023-02-26T03:39:13;0.35;;;0.28;;
48871;SDS011;36154;51.674;7.824;2023-02-26T03:41:45;0.20;;;0.20;;
48871;SDS011;36154;51.674;7.824;2023-02-26T03:47:09;0.10;;;0.10;;
48871;SDS011;36154;51.674;7.824;2023-02-26T03:49:40;0.17;;;0.17;;
48871;SDS011;36154;51.674;7.824;2023-02-26T03:52:09;0.20;;;0.20;;
48871;SDS011;36154;51.674;7.824;2023-02-26T03:54:41;0.20;;;0.20;;
48871;SDS011;36154;51.674;7.824;2023-02-26T03:57:12;0.10;;;0.10;;
48871;SDS011;36154;51.674;7.824;2023-02-26T03:59:37;0.40;;;0.28;;
48871;SDS011;36154;51.674;7.824;2023-02-26T04:02:04;0.15;;;0.15;;
48871;SDS011;36154;51.674;7.824;2023-02-26T04:04:40;0.20;;;0.20;;
48871;SDS011;36154;51.674;7.824;2023-02-26T04:07:12;0.20;;;0.20;;
48871;SDS011;36154;51.674;7.824;2023-02-26T04:09:41;0.35;;;0.30;;
48871;SDS011;36154;51.674;7.824;2023-02-26T04:12:13;0.55;;;0.20;;
48871;SDS011;36154;51.674;7.824;2023-02-26T04:14:39;0.22;;;0.20;;
48871;SDS011;36154;51.674;7.824;2023-02-26T04:17:04;0.10;;;0.10;;
48871;SDS011;36154;51.674;7.824;2023-02-26T04:19:30;0.20;;;0.20;;
48871;SDS011;36154;51.674;7.824;2023-02-26T04:21:56;0.28;;;0.28;;
48871;SDS011;36154;51.674;7.824;2023-02-26T04:24:21;0.30;;;0.30;;
48871;SDS011;36154;51.674;7.824;2023-02-26T04:26:47;0.20;;;0.20;;
48871;SDS011;36154;51.674;7.824;2023-02-26T04:29:12;0.20;;;0.15;;
48871;SDS011;36154;51.674;7.824;2023-02-26T04:31:38;0.25;;;0.25;;
48871;SDS011;36154;51.674;7.824;2023-02-26T04:34:03;0.20;;;0.20;;
48871;SDS011;36154;51.674;7.824;2023-02-26T04:36:28;0.10;;;0.10;;
48871;SDS011;36154;51.674;7.824;2023-02-26T04:38:54;0.22;;;0.20;;
48871;SDS011;36154;51.674;7.824;2023-02-26T04:41:19;0.20;;;0.20;;
48871;SDS011;36154;51.674;7.824;2023-02-26T04:43:45;0.30;;;0.30;;
48871;SDS011;36154;51.674;7.824;2023-02-26T04:46:10;0.50;;;0.35;;
48871;SDS011;36154;51.674;7.824;2023-02-26T04:48:35;0.30;;;0.28;;
48871;SDS011;36154;51.674;7.824;2023-02-26T04:51:01;0.25;;;0.22;;
48871;SDS011;36154;51.674;7.824;2023-02-26T04:53:26;0.57;;;0.20;;
48871;SDS011;36154;51.674;7.824;2023-02-26T04:55:51;0.10;;;0.10;;
48871;SDS011;36154;51.674;7.824;2023-02-26T04:58:17;0.20;;;0.10;;
48871;SDS011;36154;51.674;7.824;2023-02-26T05:00:49;0.10;;;0.10;;
48871;SDS011;36154;51.674;7.824;2023-02-26T05:03:16;0.40;;;0.10;;
48871;SDS011;36154;51.674;7.824;2023-02-26T05:05:42;0.73;;;0.25;;
48871;SDS011;36154;51.674;7.824;2023-02-26T05:08:07;0.30;;;0.30;;
48871;SDS011;36154;51.674;7.824;2023-02-26T05:10:36;0.40;;;0.32;;
48871;SDS011;36154;51.674;7.824;2023-02-26T05:13:01;0.35;;;0.35;;
48871;SDS011;36154;51.674;7.824;2023-02-26T05:15:26;0.45;;;0.45;;
48871;SDS011;36154;51.674;7.824;2023-02-26T05:17:52;0.20;;;0.20;;
48871;SDS011;36154;51.674;7.824;2023-02-26T05:20:17;0.30;;;0.30;;
48871;SDS011;36154;51.674;7.824;2023-02-26T05:22:42;0.25;;;0.25;;
48871;SDS011;36154;51.674;7.824;2023-02-26T05:25:08;0.30;;;0.30;;
48871;SDS011;36154;51.674;7.824;2023-02-26T05:27:35;0.40;;;0.40;;
48871;SDS011;36154;51.674;7.824;2023-02-26T05:30:04;0.38;;;0.30;;
48871;SDS011;36154;51.674;7.824;2023-02-26T05:32:30;0.43;;;0.30;;
48871;SDS011;36154;51.674;7.824;2023-02-26T05:34:56;0.82;;;0.20;;
48871;SDS011;36154;51.674;7.824;2023-02-26T05:37:21;0.40;;;0.30;;
48871;SDS011;36154;51.674;7.824;2023-02-26T05:39:47;0.38;;;0.32;;
48871;SDS011;36154;51.674;7.824;2023-02-26T05:42:12;0.20;;;0.20;;
48871;SDS011;36154;51.674;7.824;2023-02-26T05:44:37;0.30;;;0.28;;
48871;SDS011;36154;51.674;7.824;2023-02-26T05:47:02;0.30;;;0.30;;
48871;SDS011;36154;51.674;7.824;2023-02-26T05:49:28;0.20;;;0.20;;
48871;SDS011;36154;51.674;7.824;2023-02-26T05:51:53;0.20;;;0.20;;
48871;SDS011;36154;51.674;7.824;2023-02-26T05:54:18;0.30;;;0.30;;
48871;SDS011;36154;51.674;7.824;2023-02-26T05:56:44;0.20;;;0.20;;
48871;SDS011;36154;51.674;7.824;2023-02-26T05:59:09;0.28;;;0.28;;
48871;SDS011;36154;51.674;7.824;2023-02-26T06:01:35;0.15;;;0.15;;
48871;SDS011;36154;51.674;7.824;2023-02-26T06:04:01;0.20;;;0.20;;
48871;SDS011;36154;51.674;7.824;2023-02-26T06:06:27;0.25;;;0.20;;
48871;SDS011;36154;51.674;7.824;2023-02-26T06:08:53;0.20;;;0.13;;
48871;SDS011;36154;51.674;7.824;2023-02-26T06:11:18;0.20;;;0.20;;
48871;SDS011;36154;51.674;7.824;2023-02-26T06:13:44;0.17;;;0.17;;
48871;SDS011;36154;51.674;7.824;2023-02-26T06:16:09;0.20;;;0.20;;
48871;SDS011;36154;51.674;7.824;2023-02-26T06:18:34;0.30;;;0.20;;
48871;SDS011;36154;51.674;7.824;2023-02-26T06:21:00;0.10;;;0.10;;
48871;SDS011;36154;51.674;7.824;2023-02-26T06:23:25;0.10;;;0.10;;
48871;SDS011;36154;51.674;7.824;2023-02-26T06:25:51;0.20;;;0.10;;
48871;SDS011;36154;51.674;7.824;2023-02-26T06:28:17;0.15;;;0.15;;
48871;SDS011;36154;51.674;7.824;2023-02-26T06:30:43;0.45;;;0.20;;
48871;SDS011;36154;51.674;7.824;2023-02-26T06:33:09;0.17;;;0.15;;
48871;SDS011;36154;51.674;7.824;2023-02-26T06:35:34;0.10;;;0.10;;
48871;SDS011;36154;51.674;7.824;2023-02-26T06:38:00;0.10;;;0.10;;
48871;SDS011;36154;51.674;7.824;2023-02-26T06:40:25;0.10;;;0.10;;
48871;SDS011;36154;51.674;7.824;2023-02-26T06:42:51;0.20;;;0.20;;
48871;SDS011;36154;51.674;7.824;2023-02-26T06:45:16;0.40;;;0.20;;
48871;SDS011;36154;51.674;7.824;2023-02-26T06:47:41;0.20;;;0.20;;
48871;SDS011;36154;51.674;7.824;2023-02-26T06:50:07;0.30;;;0.30;;
48871;SDS011;36154;51.674;7.824;2023-02-26T06:52:34;0.10;;;0.10;;
48871;SDS011;36154;51.674;7.824;2023-02-26T06:54:59;0.10;;;0.10;;
48871;SDS011;36154;51.674;7.824;2023-02-26T06:57:24;0.20;;;0.20;;
48871;SDS011;36154;51.674;7.824;2023-02-26T06:59:49;0.30;;;0.30;;
48871;SDS011;36154;51.674;7.824;2023-02-26T07:02:16;0.10;;;0.10;;
48871;SDS011;36154;51.674;7.824;2023-02-26T07:04:43;0.20;;;0.20;;
48871;SDS011;36154;51.674;7.824;2023-02-26T07:07:08;0.38;;;0.20;;
48871;SDS011;36154;51.674;7.824;2023-02-26T07:09:34;0.10;;;0.10;;
48871;SDS011;36154;51.674;7.824;2023-02-26T07:11:59;0.20;;;0.20;;
48871;SDS011;36154;51.674;7.824;2023-02-26T07:14:25;0.10;;;0.10;;
48871;SDS011;36154;51.674;7.824;2023-02-26T07:16:50;0.10;;;0.10;;
48871;SDS011;36154;51.674;7.824;2023-02-26T07:19:15;0.15;;;0.10;;
48871;SDS011;36154;51.674;7.824;2023-02-26T07:21:40;0.30;;;0.30;;
48871;SDS011;36154;51.674;7.824;2023-02-26T07:24:06;0.38;;;0.20;;
48871;SDS011;36154;51.674;7.824;2023-02-26T07:26:31;0.10;;;0.10;;
48871;SDS011;36154;51.674;7.824;2023-02-26T07:28:57;0.20;;;0.20;;
48871;SDS011;36154;51.674;7.824;2023-02-26T07:31:22;0.65;;;0.30;;
48871;SDS011;36154;51.674;7.824;2023-02-26T07:33:48;0.70;;;0.32;;
48871;SDS011;36154;51.674;7.824;2023-02-26T07:36:13;0.20;;;0.20;;
48871;SDS011;36154;51.674;7.824;2023-02-26T07:38:38;0.28;;;0.28;;
48871;SDS011;36154;51.674;7.824;2023-02-26T07:41:03;0.20;;;0.20;;
48871;SDS011;36154;51.674;7.824;2023-02-26T07:43:29;0.20;;;0.20;;
48871;SDS011;36154;51.674;7.824;2023-02-26T07:45:54;0.30;;;0.30;;
48871;SDS011;36154;51.674;7.824;2023-02-26T07:48:20;0.20;;;0.20;;
48871;SDS011;36154;51.674;7.824;2023-02-26T07:50:45;0.30;;;0.20;;
48871;SDS011;36154;51.674;7.824;2023-02-26T07:53:10;0.70;;;0.40;;
48871;SDS011;36154;51.674;7.824;2023-02-26T07:55:36;0.17;;;0.15;;
48871;SDS011;36154;51.674;7.824;2023-02-26T07:58:01;0.10;;;0.10;;
48871;SDS011;36154;51.674;7.824;2023-02-26T08:00:26;2.90;;;0.15;;
48871;SDS011;36154;51.674;7.824;2023-02-26T08:02:51;0.68;;;0.10;;
48871;SDS011;36154;51.674;7.824;2023-02-26T08:05:17;0.10;;;0.10;;
48871;SDS011;36154;51.674;7.824;2023-02-26T08:07:42;0.20;;;0.20;;
48871;SDS011;36154;51.674;7.824;2023-02-26T08:10:08;0.10;;;0.10;;
48871;SDS011;36154;51.674;7.824;2023-02-26T08:12:34;0.10;;;0.10;;
48871;SDS011;36154;51.674;7.824;2023-02-26T08:15:00;0.40;;;0.30;;
48871;SDS011;36154;51.674;7.824;2023-02-26T08:17:26;0.10;;;0.10;;
48871;SDS011;36154;51.674;7.824;2023-02-26T08:19:51;0.10;;;0.10;;
48871;SDS011;36154;51.674;7.824;2023-02-26T08:22:17;0.10;;;0.10;;
48871;SDS011;36154;51.674;7.824;2023-02-26T08:24:43;0.13;;;0.10;;
48871;SDS011;36154;51.674;7.824;2023-02-26T08:27:08;0.85;;;0.10;;
48871;SDS011;36154;51.674;7.824;2023-02-26T08:29:36;0.20;;;0.20;;
48871;SDS011;36154;51.674;7.824;2023-02-26T08:32:01;0.60;;;0.20;;
48871;SDS011;36154;51.674;7.824;2023-02-26T08:34:26;0.20;;;0.20;;
48871;SDS011;36154;51.674;7.824;2023-02-26T08:36:52;0.20;;;0.20;;
48871;SDS011;36154;51.674;7.824;2023-02-26T08:39:17;0.10;;;0.10;;
48871;SDS011;36154;51.674;7.824;2023-02-26T08:41:42;0.20;;;0.20;;
48871;SDS011;36154;51.674;7.824;2023-02-26T08:44:08;0.40;;;0.28;;
48871;SDS011;36154;51.674;7.824;2023-02-26T08:46:33;1.83;;;0.80;;
48871;SDS011;36154;51.674;7.824;2023-02-26T08:49:00;1.17;;;1.10;;
48871;SDS011;36154;51.674;7.824;2023-02-26T08:51:25;1.45;;;1.45;;
48871;SDS011;36154;51.674;7.824;2023-02-26T08:53:50;2.13;;;2.13;;
48871;SDS011;36154;51.674;7.824;2023-02-26T08:56:16;1.30;;;1.30;;
48871;SDS011;36154;51.674;7.824;2023-02-26T08:58:42;1.67;;;1.40;;
48871;SDS011;36154;51.674;7.824;2023-02-26T09:01:08;5.28;;;1.40;;
48871;SDS011;36154;51.674;7.824;2023-02-26T09:03:33;1.42;;;1.30;;
48871;SDS011;36154;51.674;7.824;2023-02-26T09:05:58;1.48;;;1.40;;
48871;SDS011;36154;51.674;7.824;2023-02-26T09:08:24;1.00;;;1.00;;
48871;SDS011;36154;51.674;7.824;2023-02-26T09:10:49;1.10;;;1.10;;
48871;SDS011;36154;51.674;7.824;2023-02-26T09:13:15;0.80;;;0.80;;
48871;SDS011;36154;51.674;7.824;2023-02-26T09:15:40;0.93;;;0.93;;
48871;SDS011;36154;51.674;7.824;2023-02-26T09:18:06;0.98;;;0.98;;
48871;SDS011;36154;51.674;7.824;2023-02-26T09:20:35;0.70;;;0.70;;
48871;SDS011;36154;51.674;7.824;2023-02-26T09:23:01;0.75;;;0.75;;
48871;SDS011;36154;51.674;7.824;2023-02-26T09:25:26;0.60;;;0.60;;
48871;SDS011;36154;51.674;7.824;2023-02-26T09:27:51;0.80;;;0.60;;
48871;SDS011;36154;51.674;7.824;2023-02-26T09:30:17;0.40;;;0.40;;
48871;SDS011;36154;51.674;7.824;2023-02-26T09:32:42;0.50;;;0.50;;
48871;SDS011;36154;51.674;7.824;2023-02-26T09:35:08;0.65;;;0.43;;
48871;SDS011;36154;51.674;7.824;2023-02-26T09:37:34;0.60;;;0.45;;
48871;SDS011;36154;51.674;7.824;2023-02-26T09:39:59;0.38;;;0.38;;
48871;SDS011;36154;51.674;7.824;2023-02-26T09:44:55;0.25;;;0.25;;
48871;SDS011;36154;51.674;7.824;2023-02-26T09:47:26;0.55;;;0.35;;
48871;SDS011;36154;51.674;7.824;2023-02-26T09:49:56;0.20;;;0.20;;
48871;SDS011;36154;51.674;7.824;2023-02-26T09:52:40;0.20;;;0.20;;
48871;SDS011;36154;51.674;7.824;2023-02-26T09:55:16;0.20;;;0.20;;
48871;SDS011;36154;51.674;7.824;2023-02-26T09:57:51;0.52;;;0.30;;
48871;SDS011;36154;51.674;7.824;2023-02-26T10:00:23;3.17;;;0.80;;
48871;SDS011;36154;51.674;7.824;2023-02-26T10:08:45;5.30;;;1.88;;
48871;SDS011;36154;51.674;7.824;2023-02-26T10:11:31;10.13;;;2.05;;
48871;SDS011;36154;51.674;7.824;2023-02-26T10:14:01;7.07;;;1.92;;
48871;SDS011;36154;51.674;7.824;2023-02-26T10:16:34;7.88;;;2.10;;
48871;SDS011;36154;51.674;7.824;2023-02-26T10:19:06;8.90;;;1.95;;
48871;SDS011;36154;51.674;7.824;2023-02-26T10:24:13;7.00;;;1.60;;
48871;SDS011;36154;51.674;7.824;2023-02-26T10:26:48;4.35;;;1.40;;
48871;SDS011;36154;51.674;7.824;2023-02-26T10:34:55;5.70;;;1.48;;
48871;SDS011;36154;51.674;7.824;2023-02-26T10:37:32;6.50;;;1.60;;
48871;SDS011;36154;51.674;7.824;2023-02-26T10:40:12;4.53;;;1.40;;
48871;SDS011;36154;51.674;7.824;2023-02-26T10:42:42;2.95;;;1.52;;
48871;SDS011;36154;51.674;7.824;2023-02-26T10:48:08;3.58;;;1.27;;
48871;SDS011;36154;51.674;7.824;2023-02-26T10:50:52;3.58;;;1.10;;
48871;SDS011;36154;51.674;7.824;2023-02-26T10:53:20;4.80;;;1.27;;
48871;SDS011;36154;51.674;7.824;2023-02-26T10:56:01;3.63;;;1.20;;
48871;SDS011;36154;51.674;7.824;2023-02-26T10:58:32;3.05;;;1.25;;
48871;SDS011;36154;51.674;7.824;2023-02-26T11:00:57;4.78;;;1.10;;
48871;SDS011;36154;51.674;7.824;2023-02-26T11:03:36;4.22;;;1.38;;
48871;SDS011;36154;51.674;7.824;2023-02-26T11:06:04;3.17;;;1.17;;
48871;SDS011;36154;51.674;7.824;2023-02-26T11:08:32;2.58;;;1.10;;
48871;SDS011;36154;51.674;7.824;2023-02-26T11:11:02;2.80;;;1.00;;
48871;SDS011;36154;51.674;7.824;2023-02-26T11:13:30;2.47;;;1.20;;
48871;SDS011;36154;51.674;7.824;2023-02-26T11:16:18;1.58;;;0.82;;
48871;SDS011;36154;51.674;7.824;2023-02-26T11:18:44;2.35;;;1.08;;
48871;SDS011;36154;51.674;7.824;2023-02-26T11:21:17;3.28;;;0.93;;
48871;SDS011;36154;51.674;7.824;2023-02-26T11:23:46;2.90;;;0.80;;
48871;SDS011;36154;51.674;7.824;2023-02-26T11:26:16;2.15;;;0.70;;
48871;SDS011;36154;51.674;7.824;2023-02-26T11:28:44;3.03;;;0.82;;
48871;SDS011;36154;51.674;7.824;2023-02-26T11:31:14;3.33;;;1.13;;
48871;SDS011;36154;51.674;7.824;2023-02-26T11:33:44;2.03;;;0.80;;
48871;SDS011;36154;51.674;7.824;2023-02-26T11:36:14;1.38;;;0.80;;
48871;SDS011;36154;51.674;7.824;2023-02-26T11:38:44;2.55;;;0.77;;
48871;SDS011;36154;51.674;7.824;2023-02-26T11:41:11;1.65;;;0.60;;
48871;SDS011;36154;51.674;7.824;2023-02-26T11:43:42;22.05;;;2.45;;
48871;SDS011;36154;51.674;7.824;2023-02-26T11:46:09;23.80;;;4.40;;
48871;SDS011;36154;51.674;7.824;2023-02-26T11:51:23;22.17;;;4.47;;
48871;SDS011;36154;51.674;7.824;2023-02-26T11:53:52;27.33;;;4.90;;
48871;SDS011;36154;51.674;7.824;2023-02-26T11:56:36;14.63;;;4.05;;
48871;SDS011;36154;51.674;7.824;2023-02-26T11:59:05;21.40;;;4.28;;
48871;SDS011;36154;51.674;7.824;2023-02-26T12:01:38;18.90;;;4.25;;
48871;SDS011;36154;51.674;7.824;2023-02-26T12:04:08;13.38;;;3.60;;
48871;SDS011;36154;51.674;7.824;2023-02-26T12:06:35;16.40;;;3.55;;
48871;SDS011;36154;51.674;7.824;2023-02-26T12:09:00;15.70;;;3.70;;
48871;SDS011;36154;51.674;7.824;2023-02-26T12:25:39;32.42;;;10.18;;
48871;SDS011;36154;51.674;7.824;2023-02-26T12:34:36;66.68;;;30.75;;
48871;SDS011;36154;51.674;7.824;2023-02-26T12:42:55;85.00;;;39.58;;
48871;SDS011;36154;51.674;7.824;2023-02-26T12:48:49;73.03;;;35.63;;
48871;SDS011;36154;51.674;7.824;2023-02-26T13:02:07;47.47;;;24.63;;
48871;SDS011;36154;51.674;7.824;2023-02-26T13:04:57;50.88;;;25.60;;
48871;SDS011;36154;51.674;7.824;2023-02-26T13:08:01;47.03;;;24.52;;
48871;SDS011;36154;51.674;7.824;2023-02-26T13:16:01;11.38;;;5.75;;
48871;SDS011;36154;51.674;7.824;2023-02-26T13:18:58;9.18;;;5.72;;
48871;SDS011;36154;51.674;7.824;2023-02-26T13:21:35;10.85;;;6.57;;
48871;SDS011;36154;51.674;7.824;2023-02-26T13:26:50;13.77;;;7.90;;
48871;SDS011;36154;51.674;7.824;2023-02-26T13:29:19;12.27;;;8.10;;
48871;SDS011;36154;51.674;7.824;2023-02-26T13:31:51;13.13;;;6.88;;
48871;SDS011;36154;51.674;7.824;2023-02-26T13:34:43;12.70;;;7.22;;
48871;SDS011;36154;51.674;7.824;2023-02-26T13:37:09;10.80;;;6.75;;
48871;SDS011;36154;51.674;7.824;2023-02-26T13:50:38;8.73;;;5.30;;
48871;SDS011;36154;51.674;7.824;2023-02-26T13:55:51;6.05;;;5.10;;
48871;SDS011;36154;51.674;7.824;2023-02-26T13:58:26;9.25;;;5.20;;
48871;SDS011;36154;51.674;7.824;2023-02-26T14:03:45;5.15;;;4.25;;
48871;SDS011;36154;51.674;7.824;2023-02-26T14:06:22;5.20;;;4.13;;
48871;SDS011;36154;51.674;7.824;2023-02-26T14:08:53;5.45;;;4.10;;
48871;SDS011;36154;51.674;7.824;2023-02-26T14:16:34;4.75;;;3.50;;
48871;SDS011;36154;51.674;7.824;2023-02-26T14:19:18;4.25;;;3.60;;
48871;SDS011;36154;51.674;7.824;2023-02-26T14:21:53;4.78;;;3.50;;
48871;SDS011;36154;51.674;7.824;2023-02-26T14:24:38;3.58;;;3.28;;
48871;SDS011;36154;51.674;7.824;2023-02-26T14:29:41;5.63;;;3.10;;
48871;SDS011;36154;51.674;7.824;2023-02-26T14:34:34;5.00;;;3.20;;
48871;SDS011;36154;51.674;7.824;2023-02-26T14:37:06;4.40;;;3.10;;
48871;SDS011;36154;51.674;7.824;2023-02-26T14:39:38;2.83;;;2.63;;
48871;SDS011;36154;51.674;7.824;2023-02-26T14:42:10;2.80;;;2.60;;
48871;SDS011;36154;51.674;7.824;2023-02-26T14:44:40;2.92;;;2.60;;
48871;SDS011;36154;51.674;7.824;2023-02-26T14:47:08;2.90;;;2.70;;
48871;SDS011;36154;51.674;7.824;2023-02-26T14:49:35;2.97;;;2.72;;
48871;SDS011;36154;51.674;7.824;2023-02-26T14:57:52;4.80;;;1.30;;
48871;SDS011;36154;51.674;7.824;2023-02-26T15:00:29;6.63;;;1.48;;
48871;SDS011;36154;51.674;7.824;2023-02-26T15:08:44;2.88;;;1.02;;
48871;SDS011;36154;51.674;7.824;2023-02-26T15:11:25;5.43;;;0.80;;
48871;SDS011;36154;51.674;7.824;2023-02-26T15:14:16;9.75;;;1.00;;
48871;SDS011;36154;51.674;7.824;2023-02-26T15:19:37;1.90;;;0.70;;
48871;SDS011;36154;51.674;7.824;2023-02-26T15:24:48;1.08;;;0.60;;
48871;SDS011;36154;51.674;7.824;2023-02-26T15:27:15;1.85;;;0.65;;
48871;SDS011;36154;51.674;7.824;2023-02-26T15:29:42;4.82;;;0.80;;
48871;SDS011;36154;51.674;7.824;2023-02-26T15:32:16;1.60;;;0.60;;
48871;SDS011;36154;51.674;7.824;2023-02-26T15:34:45;2.40;;;0.70;;
48871;SDS011;36154;51.674;7.824;2023-02-26T15:37:17;1.70;;;0.40;;
48871;SDS011;36154;51.674;7.824;2023-02-26T15:39:49;0.50;;;0.50;;
48871;SDS011;36154;51.674;7.824;2023-02-26T15:42:16;1.20;;;0.57;;
48871;SDS011;36154;51.674;7.824;2023-02-26T15:44:43;0.75;;;0.47;;
48871;SDS011;36154;51.674;7.824;2023-02-26T15:47:10;1.02;;;0.50;;
48871;SDS011;36154;51.674;7.824;2023-02-26T15:49:36;1.63;;;0.50;;
48871;SDS011;36154;51.674;7.824;2023-02-26T15:52:06;1.25;;;0.30;;
48871;SDS011;36154;51.674;7.824;2023-02-26T15:54:34;0.40;;;0.40;;
48871;SDS011;36154;51.674;7.824;2023-02-26T15:57:06;0.10;;;0.10;;
48871;SDS011;36154;51.674;7.824;2023-02-26T15:59:33;0.22;;;0.20;;
48871;SDS011;36154;51.674;7.824;2023-02-26T16:02:09;0.20;;;0.20;;
48871;SDS011;36154;51.674;7.824;2023-02-26T16:04:36;0.20;;;0.10;;
48871;SDS011;36154;51.674;7.824;2023-02-26T16:07:02;0.20;;;0.20;;
48871;SDS011;36154;51.674;7.824;2023-02-26T16:09:29;0.30;;;0.20;;
48871;SDS011;36154;51.674;7.824;2023-02-26T16:11:59;3.58;;;0.28;;
48871;SDS011;36154;51.674;7.824;2023-02-26T16:14:32;0.30;;;0.30;;
48871;SDS011;36154;51.674;7.824;2023-02-26T16:17:02;1.13;;;0.20;;
48871;SDS011;36154;51.674;7.824;2023-02-26T16:22:00;0.20;;;0.20;;
48871;SDS011;36154;51.674;7.824;2023-02-26T16:24:31;0.20;;;0.20;;
48871;SDS011;36154;51.674;7.824;2023-02-26T16:27:02;0.20;;;0.20;;
48871;SDS011;36154;51.674;7.824;2023-02-26T16:29:31;0.30;;;0.30;;
48871;SDS011;36154;51.674;7.824;2023-02-26T16:31:59;0.57;;;0.25;;
48871;SDS011;36154;51.674;7.824;2023-02-26T16:34:32;0.25;;;0.20;;
48871;SDS011;36154;51.674;7.824;2023-02-26T16:40:17;0.20;;;0.20;;
48871;SDS011;36154;51.674;7.824;2023-02-26T16:45:41;0.38;;;0.20;;
48871;SDS011;36154;51.674;7.824;2023-02-26T16:48:26;0.32;;;0.30;;
48871;SDS011;36154;51.674;7.824;2023-02-26T16:51:12;0.10;;;0.10;;
48871;SDS011;36154;51.674;7.824;2023-02-26T16:53:45;0.28;;;0.28;;
48871;SDS011;36154;51.674;7.824;2023-02-26T16:56:24;0.43;;;0.30;;
48871;SDS011;36154;51.674;7.824;2023-02-26T16:58:55;0.20;;;0.20;;
48871;SDS011;36154;51.674;7.824;2023-02-26T17:01:21;1.55;;;0.30;;
48871;SDS011;36154;51.674;7.824;2023-02-26T17:03:52;0.57;;;0.57;;
48871;SDS011;36154;51.674;7.824;2023-02-26T17:06:24;0.90;;;0.55;;
48871;SDS011;36154;51.674;7.824;2023-02-26T17:08:52;0.40;;;0.38;;
48871;SDS011;36154;51.674;7.824;2023-02-26T17:11:24;0.17;;;0.17;;
48871;SDS011;36154;51.674;7.824;2023-02-26T17:14:11;1.42;;;0.20;;
48871;SDS011;36154;51.674;7.824;2023-02-26T17:16:45;0.20;;;0.20;;
48871;SDS011;36154;51.674;7.824;2023-02-26T17:19:11;0.10;;;0.10;;
48871;SDS011;36154;51.674;7.824;2023-02-26T17:21:39;1.33;;;0.30;;
48871;SDS011;36154;51.674;7.824;2023-02-26T17:26:56;0.30;;;0.20;;
48871;SDS011;36154;51.674;7.824;2023-02-26T17:29:38;0.28;;;0.22;;
48871;SDS011;36154;51.674;7.824;2023-02-26T17:32:07;0.30;;;0.30;;
48871;SDS011;36154;51.674;7.824;2023-02-26T17:34:45;0.82;;;0.35;;
48871;SDS011;36154;51.674;7.824;2023-02-26T17:37:11;2.38;;;0.50;;
48871;SDS011;36154;51.674;7.824;2023-02-26T17:39:37;0.50;;;0.30;;
48871;SDS011;36154;51.674;7.824;2023-02-26T17:42:07;0.75;;;0.57;;
48871;SDS011;36154;51.674;7.824;2023-02-26T17:44:34;0.50;;;0.30;;
48871;SDS011;36154;51.674;7.824;2023-02-26T17:46:59;2.03;;;0.40;;
48871;SDS011;36154;51.674;7.824;2023-02-26T17:49:25;0.30;;;0.20;;
48871;SDS011;36154;51.674;7.824;2023-02-26T17:51:50;0.40;;;0.25;;
48871;SDS011;36154;51.674;7.824;2023-02-26T17:54:17;1.38;;;0.25;;
48871;SDS011;36154;51.674;7.824;2023-02-26T17:56:43;0.22;;;0.22;;
48871;SDS011;36154;51.674;7.824;2023-02-26T17:59:09;0.40;;;0.30;;
48871;SDS011;36154;51.674;7.824;2023-02-26T18:01:36;1.10;;;0.40;;
48871;SDS011;36154;51.674;7.824;2023-02-26T18:04:02;0.93;;;0.45;;
48871;SDS011;36154;51.674;7.824;2023-02-26T18:06:29;2.75;;;0.70;;
48871;SDS011;36154;51.674;7.824;2023-02-26T18:08:58;5.32;;;1.17;;
48871;SDS011;36154;51.674;7.824;2023-02-26T18:11:23;6.30;;;1.58;;
48871;SDS011;36154;51.674;7.824;2023-02-26T18:13:49;3.92;;;1.38;;
48871;SDS011;36154;51.674;7.824;2023-02-26T18:16:17;9.93;;;1.80;;